createdAt,value
2019-03-12T00:01:15.428Z,49.00
2019-03-12T00:03:43.376Z,48.30
2019-03-12T00:06:11.349Z,48.60
2019-03-12T00:08:39.480Z,48.90
2019-03-12T00:11:07.386Z,49.20
2019-03-12T00:13:35.329Z,50.10
2019-03-12T00:16:04.499Z,50.70
2019-03-12T00:18:32.526Z,51.00
2019-03-12T00:21:01.541Z,51.20
2019-03-12T00:23:29.555Z,51.40
2019-03-12T00:25:57.540Z,51.60
2019-03-12T00:28:25.578Z,51.30
2019-03-12T00:30:53.575Z,51.20
2019-03-12T00:33:21.457Z,51.30
2019-03-12T00:35:49.419Z,51.60
2019-03-12T00:38:17.386Z,51.80
2019-03-12T00:40:45.379Z,52.10
2019-03-12T00:43:13.448Z,52.20
2019-03-12T00:45:41.401Z,52.80
2019-03-12T00:48:09.381Z,53.30
2019-03-12T00:50:37.266Z,53.40
2019-03-12T00:53:05.214Z,53.20
2019-03-12T00:55:33.104Z,52.60
2019-03-12T00:58:01.165Z,52.70
2019-03-12T01:00:29.099Z,52.80
2019-03-12T01:02:56.969Z,53.10
2019-03-12T01:05:24.987Z,53.10
2019-03-12T01:07:52.929Z,53.00
2019-03-12T01:10:20.848Z,52.90
2019-03-12T01:12:48.853Z,52.30
2019-03-12T01:15:16.822Z,52.20
2019-03-12T01:17:45.837Z,52.30
2019-03-12T01:20:13.829Z,52.40
2019-03-12T01:22:42.056Z,52.20
2019-03-12T01:25:10.552Z,52.10
2019-03-12T01:27:38.734Z,51.50
2019-03-12T01:30:09.711Z,51.40
2019-03-12T01:32:37.611Z,51.50
2019-03-12T01:35:05.802Z,51.40
2019-03-12T01:37:37.407Z,51.90
2019-03-12T01:40:09.568Z,51.40
2019-03-12T01:42:38.704Z,51.60
2019-03-12T01:45:08.998Z,52.10
2019-03-12T01:47:38.641Z,52.00
2019-03-12T01:50:10.387Z,52.80
2019-03-12T01:52:39.681Z,53.00
2019-03-12T01:55:08.621Z,52.90
2019-03-12T01:57:36.458Z,52.60
2019-03-12T02:00:06.532Z,52.50
2019-03-12T02:02:34.718Z,52.60
2019-03-12T02:05:02.824Z,52.60
2019-03-12T02:07:30.829Z,52.50
2019-03-12T02:09:58.745Z,52.80
2019-03-12T02:12:26.619Z,53.10
2019-03-12T02:14:54.497Z,53.30
2019-03-12T02:17:22.358Z,53.50
2019-03-12T02:19:50.540Z,53.70
2019-03-12T02:22:18.400Z,53.80
2019-03-12T02:24:52.601Z,53.70
2019-03-12T02:27:16.093Z,54.10
2019-03-12T02:29:44.080Z,54.10
2019-03-12T02:32:11.972Z,54.40
2019-03-12T02:34:39.848Z,54.80
2019-03-12T02:37:07.861Z,54.20
2019-03-12T02:39:36.830Z,54.30
2019-03-12T02:42:04.803Z,54.50
2019-03-12T02:44:32.689Z,55.10
2019-03-12T02:47:00.541Z,55.00
2019-03-12T02:49:28.453Z,55.30
2019-03-12T02:51:57.292Z,55.40
2019-03-12T02:54:26.141Z,56.20
2019-03-12T02:56:54.099Z,56.10
2019-03-12T02:59:22.010Z,56.20
2019-03-12T03:01:50.125Z,56.50
2019-03-12T03:04:18.050Z,57.00
2019-03-12T03:06:50.735Z,57.40
2019-03-12T03:09:18.770Z,57.70
2019-03-12T03:11:46.679Z,57.90
2019-03-12T03:14:36.964Z,58.20
2019-03-12T03:17:06.036Z,58.50
2019-03-12T03:19:33.897Z,58.90
2019-03-12T03:22:01.744Z,59.20
2019-03-12T03:24:30.658Z,59.60
2019-03-12T03:26:58.840Z,59.60
2019-03-12T03:29:26.760Z,59.90
2019-03-12T03:31:54.617Z,60.10
2019-03-12T03:34:27.792Z,60.50
2019-03-12T03:36:52.288Z,60.50
2019-03-12T03:39:20.170Z,60.70
2019-03-12T03:41:48.068Z,60.90
2019-03-12T03:44:16.445Z,61.30
2019-03-12T03:46:44.388Z,61.30
2019-03-12T03:49:12.376Z,61.60
2019-03-12T03:51:40.539Z,62.20
2019-03-12T03:54:08.401Z,62.10
2019-03-12T03:56:36.362Z,62.40
2019-03-12T03:59:04.298Z,62.20
2019-03-12T04:01:32.153Z,62.20
2019-03-12T04:04:00.073Z,62.50
2019-03-12T04:06:28.070Z,62.60
2019-03-12T04:08:55.979Z,62.90
2019-03-12T04:11:23.907Z,62.70
2019-03-12T04:13:51.723Z,62.60
2019-03-12T04:16:19.668Z,62.70
2019-03-12T04:18:47.514Z,62.40
2019-03-12T04:21:15.644Z,62.20
2019-03-12T04:23:43.869Z,62.50
2019-03-12T04:26:11.879Z,62.10
2019-03-12T04:28:39.831Z,61.80
2019-03-12T04:31:07.769Z,61.10
2019-03-12T04:34:16.531Z,61.10
2019-03-12T04:36:45.876Z,61.50
2019-03-12T04:39:14.113Z,61.60
2019-03-12T04:41:42.022Z,61.00
2019-03-12T04:44:09.948Z,60.80
2019-03-12T04:46:37.873Z,60.90
2019-03-12T04:49:05.831Z,61.30
2019-03-12T04:51:35.066Z,61.60
2019-03-12T04:54:02.966Z,61.60
2019-03-12T04:56:30.891Z,61.60
2019-03-12T04:58:58.869Z,61.80
2019-03-12T05:01:26.852Z,62.30
2019-03-12T05:03:54.702Z,63.30
2019-03-12T05:06:22.588Z,62.90
2019-03-12T05:08:50.455Z,63.00
2019-03-12T05:11:18.804Z,63.30
2019-03-12T05:14:24.723Z,63.50
2019-03-12T05:16:55.903Z,64.10
2019-03-12T05:19:25.237Z,65.00
2019-03-12T05:21:53.127Z,65.50
2019-03-12T05:24:21.148Z,65.90
2019-03-12T05:26:50.308Z,66.30
2019-03-12T05:29:18.432Z,66.60
2019-03-12T05:31:46.327Z,67.20
2019-03-12T05:34:14.314Z,67.90
2019-03-12T05:36:42.331Z,68.30
2019-03-12T05:39:10.135Z,68.60
2019-03-12T05:41:39.119Z,68.60
2019-03-12T05:44:07.066Z,69.40
2019-03-12T05:46:34.999Z,69.90
2019-03-12T05:49:04.021Z,69.80
2019-03-12T05:51:32.047Z,69.60
2019-03-12T05:54:00.117Z,69.90
2019-03-12T05:56:28.047Z,70.20
2019-03-12T05:58:56.025Z,70.80
2019-03-12T06:01:23.983Z,71.00
2019-03-12T06:03:51.962Z,70.70
2019-03-12T06:06:19.975Z,71.10
2019-03-12T06:08:47.911Z,71.20
2019-03-12T06:11:15.950Z,71.50
2019-03-12T06:13:43.924Z,71.20
2019-03-12T06:16:11.896Z,71.40
2019-03-12T06:18:40.005Z,71.50
2019-03-12T06:21:08.032Z,71.40
2019-03-12T06:23:36.033Z,71.60
2019-03-12T06:26:04.386Z,71.30
2019-03-12T06:28:32.416Z,71.70
2019-03-12T06:31:20.002Z,71.60
2019-03-12T06:33:55.538Z,71.90
2019-03-12T06:36:36.528Z,71.60
2019-03-12T06:39:29.658Z,71.90
2019-03-12T06:42:16.899Z,71.90
2019-03-12T06:44:55.010Z,72.10
2019-03-12T06:47:38.345Z,72.30
2019-03-12T06:50:16.045Z,72.10
2019-03-12T06:53:01.118Z,72.00
2019-03-12T06:55:48.331Z,72.20
2019-03-12T06:58:44.851Z,71.90
2019-03-12T07:01:31.495Z,71.30
2019-03-12T07:04:30.657Z,71.20
2019-03-12T07:07:17.270Z,71.30
2019-03-12T07:10:08.257Z,70.80
2019-03-12T07:12:58.866Z,70.40
2019-03-12T07:15:44.763Z,70.00
2019-03-12T07:18:35.389Z,69.40
2019-03-12T07:21:28.752Z,69.10
2019-03-12T07:24:06.646Z,70.00
2019-03-12T07:26:43.736Z,69.30
2019-03-12T07:29:25.010Z,69.30
2019-03-12T07:32:11.300Z,68.80
2019-03-12T07:34:50.221Z,68.40
2019-03-12T07:37:44.846Z,67.70
2019-03-12T07:40:41.165Z,67.00
2019-03-12T07:43:31.483Z,66.90
2019-03-12T07:46:19.291Z,66.20
2019-03-12T07:49:07.663Z,65.40
2019-03-12T07:52:01.415Z,64.90
2019-03-12T07:54:46.386Z,65.40
2019-03-12T07:57:23.161Z,65.20
2019-03-12T07:59:57.923Z,65.50
2019-03-12T08:02:44.007Z,64.50
2019-03-12T08:05:29.744Z,62.80
2019-03-12T08:08:17.414Z,62.80
2019-03-12T08:11:00.421Z,61.80
2019-03-12T08:13:44.256Z,61.40
2019-03-12T08:16:21.351Z,60.70
2019-03-12T08:19:01.599Z,60.10
2019-03-12T08:21:49.981Z,58.90
2019-03-12T08:24:24.051Z,58.50
2019-03-12T08:27:20.390Z,58.90
2019-03-12T08:30:08.025Z,58.10
2019-03-12T08:32:46.234Z,57.00
2019-03-12T08:35:22.434Z,56.40
2019-03-12T08:38:01.562Z,56.50
2019-03-12T08:40:52.499Z,55.50
2019-03-12T08:43:33.513Z,55.40
2019-03-12T08:46:22.374Z,54.00
2019-03-12T08:49:11.358Z,53.70
2019-03-12T08:52:07.829Z,53.20
2019-03-12T08:54:54.721Z,52.30
2019-03-12T08:57:40.886Z,53.10
2019-03-12T09:00:37.380Z,52.30
2019-03-12T09:03:24.722Z,50.00
2019-03-12T09:06:01.376Z,50.40
2019-03-12T09:08:44.230Z,50.10
2019-03-12T09:11:30.446Z,50.30
2019-03-12T09:14:09.394Z,49.70
2019-03-12T09:17:12.049Z,48.40
2019-03-12T09:19:51.006Z,47.50
2019-03-12T09:22:44.261Z,47.90
2019-03-12T09:25:40.827Z,46.80
2019-03-12T09:28:40.602Z,47.30
2019-03-12T09:31:26.472Z,48.10
2019-03-12T09:34:03.276Z,46.50
2019-03-12T09:36:49.719Z,47.10
2019-03-12T09:39:40.357Z,46.80
2019-03-12T09:42:26.667Z,45.20
2019-03-12T09:45:10.785Z,44.80
2019-03-12T09:47:58.557Z,44.10
2019-03-12T09:50:31.775Z,43.10
2019-03-12T09:53:15.765Z,43.10
2019-03-12T09:55:53.365Z,43.00
2019-03-12T09:58:37.617Z,42.90
2019-03-12T10:01:25.243Z,41.90
2019-03-12T10:04:13.080Z,42.40
2019-03-12T10:07:06.504Z,40.80
2019-03-12T10:09:50.831Z,41.70
2019-03-12T10:12:36.978Z,41.40
2019-03-12T10:15:37.057Z,41.40
2019-03-12T10:18:30.383Z,40.90
2019-03-12T10:21:16.821Z,41.80
2019-03-12T10:24:07.368Z,39.50
2019-03-12T10:26:52.198Z,40.00
2019-03-12T10:29:38.062Z,40.10
2019-03-12T10:32:25.628Z,37.80
2019-03-12T10:39:18.542Z,38.40
2019-03-12T10:41:54.182Z,38.20
2019-03-12T10:44:31.162Z,36.90
2019-03-12T10:47:04.507Z,37.60
2019-03-12T10:49:37.544Z,37.20
2019-03-12T10:52:03.035Z,37.20
2019-03-12T10:54:30.987Z,37.70
2019-03-12T10:56:58.969Z,37.00
2019-03-12T10:59:26.961Z,35.90
2019-03-12T11:01:54.857Z,36.10
2019-03-12T11:04:22.815Z,35.70
2019-03-12T11:06:50.865Z,36.10
2019-03-12T11:09:19.626Z,35.20
2019-03-12T11:11:47.546Z,36.70
2019-03-12T11:14:16.589Z,36.10
2019-03-12T11:16:44.569Z,36.40
2019-03-12T11:19:12.576Z,35.90
2019-03-12T11:21:40.576Z,35.60
2019-03-12T11:24:08.531Z,35.40
2019-03-12T11:26:36.515Z,35.30
2019-03-12T11:29:04.636Z,35.30
2019-03-12T11:31:32.552Z,35.70
2019-03-12T11:34:00.537Z,35.00
2019-03-12T11:36:28.522Z,35.60
2019-03-12T11:38:56.565Z,36.10
2019-03-12T11:41:24.654Z,34.60
2019-03-12T11:43:53.069Z,35.30
2019-03-12T11:46:21.094Z,35.30
2019-03-12T11:48:49.185Z,35.00
2019-03-12T11:51:17.513Z,34.30
2019-03-12T11:53:46.581Z,35.40
2019-03-12T11:56:15.331Z,34.40
2019-03-12T11:58:43.257Z,34.60
2019-03-12T12:01:11.315Z,35.00
2019-03-12T12:03:39.331Z,34.00
2019-03-12T12:06:07.288Z,32.90
2019-03-12T12:08:35.181Z,33.20
2019-03-12T12:11:03.278Z,33.50
2019-03-12T12:13:31.357Z,33.60
2019-03-12T12:16:00.129Z,34.20
2019-03-12T12:18:28.208Z,33.30
2019-03-12T12:20:56.225Z,33.20
2019-03-12T12:23:24.353Z,33.00
2019-03-12T12:25:52.399Z,33.20
2019-03-12T12:28:20.662Z,32.50
2019-03-12T12:30:48.634Z,32.50
2019-03-12T12:33:16.781Z,32.70
2019-03-12T12:35:44.783Z,32.50
2019-03-12T12:38:12.712Z,33.00
2019-03-12T12:40:40.676Z,33.20
2019-03-12T12:43:08.621Z,32.60
2019-03-12T12:45:36.651Z,31.70
2019-03-12T12:48:05.113Z,31.60
2019-03-12T12:50:33.134Z,31.90
2019-03-12T12:53:01.115Z,31.90
2019-03-12T12:55:29.084Z,31.10
2019-03-12T12:57:57.005Z,31.20
2019-03-12T13:00:25.071Z,31.30
2019-03-12T13:02:52.988Z,31.20
2019-03-12T13:05:21.098Z,31.20
2019-03-12T13:07:49.121Z,30.60
2019-03-12T13:10:21.185Z,30.40
2019-03-12T13:12:49.472Z,30.60
2019-03-12T13:15:17.631Z,30.80
2019-03-12T13:17:45.694Z,30.30
2019-03-12T13:20:14.491Z,29.50
2019-03-12T13:22:42.452Z,30.30
2019-03-12T13:25:10.785Z,29.20
2019-03-12T13:27:42.608Z,28.90
2019-03-12T13:30:11.905Z,29.00
2019-03-12T13:32:39.809Z,28.70
2019-03-12T13:35:08.632Z,28.70
2019-03-12T13:37:36.751Z,29.50
2019-03-12T13:40:05.139Z,29.10
2019-03-12T13:42:33.029Z,29.00
2019-03-12T13:45:01.460Z,28.90
2019-03-12T13:47:30.001Z,28.80
2019-03-12T13:49:58.110Z,28.80
2019-03-12T13:52:28.689Z,27.50
2019-03-12T13:54:56.689Z,27.30
2019-03-12T13:57:24.690Z,28.00
2019-03-12T13:59:52.681Z,28.40
2019-03-12T14:02:20.636Z,27.40
2019-03-12T14:04:48.635Z,27.00
2019-03-12T14:07:16.602Z,26.30
2019-03-12T14:09:44.688Z,25.90
2019-03-12T14:12:13.040Z,25.90
2019-03-12T14:14:41.057Z,25.60
2019-03-12T14:17:09.460Z,25.30
2019-03-12T14:19:38.644Z,25.40
2019-03-12T14:22:08.434Z,26.40
2019-03-12T14:24:36.511Z,25.70
2019-03-12T14:27:04.569Z,25.80
2019-03-12T14:29:32.586Z,26.00
2019-03-12T14:32:00.807Z,25.90
2019-03-12T14:34:28.820Z,25.10
2019-03-12T14:36:56.881Z,25.00
2019-03-12T14:39:25.223Z,24.50
2019-03-12T14:41:53.243Z,24.00
2019-03-12T14:44:22.170Z,23.20
2019-03-12T14:46:50.161Z,23.20
2019-03-12T14:49:18.278Z,23.40
2019-03-12T14:52:33.119Z,23.30
2019-03-12T14:55:01.147Z,21.80
2019-03-12T14:57:29.195Z,21.50
2019-03-12T14:59:57.157Z,21.60
2019-03-12T15:02:25.264Z,20.80
2019-03-12T15:04:53.307Z,21.20
2019-03-12T15:07:21.273Z,21.10
2019-03-12T15:09:49.289Z,20.70
2019-03-12T15:12:17.384Z,21.00
2019-03-12T15:14:45.344Z,21.30
2019-03-12T15:17:13.368Z,22.00
2019-03-12T15:19:41.370Z,21.40
2019-03-12T15:22:09.375Z,21.20
2019-03-12T15:24:37.403Z,21.20
2019-03-12T15:27:06.363Z,20.60
2019-03-12T15:29:35.933Z,20.70
2019-03-12T15:32:04.742Z,20.10
2019-03-12T15:34:33.086Z,20.50
2019-03-12T15:37:02.063Z,20.60
2019-03-12T15:39:30.152Z,19.90
2019-03-12T15:41:58.199Z,19.40
2019-03-12T15:44:26.580Z,18.00
2019-03-12T15:46:54.587Z,18.00
2019-03-12T15:49:23.099Z,17.10
2019-03-12T15:51:51.226Z,17.10
2019-03-12T15:54:19.786Z,17.00
2019-03-12T15:56:49.348Z,17.10
2019-03-12T15:59:17.636Z,17.40
2019-03-12T16:01:45.684Z,17.40
2019-03-12T16:04:13.928Z,17.30
2019-03-12T16:06:41.908Z,17.40
2019-03-12T16:09:10.181Z,17.80
2019-03-12T16:11:39.008Z,18.20
2019-03-12T16:14:08.406Z,18.10
2019-03-12T16:16:36.568Z,18.50
2019-03-12T16:19:04.680Z,18.50
2019-03-12T16:21:32.646Z,18.80
2019-03-12T16:24:01.062Z,19.20
2019-03-12T16:26:29.175Z,19.10
2019-03-12T16:28:57.280Z,18.70
2019-03-12T16:31:25.286Z,19.30
2019-03-12T16:33:53.261Z,19.70
2019-03-12T16:36:21.400Z,19.50
2019-03-12T16:38:49.343Z,19.60
2019-03-12T16:41:17.409Z,19.80
2019-03-12T16:43:45.380Z,19.60
2019-03-12T16:46:13.396Z,19.80
2019-03-12T16:48:41.626Z,19.80
2019-03-12T16:51:09.597Z,19.80
2019-03-12T16:53:39.682Z,19.90
2019-03-12T16:56:07.685Z,20.00
2019-03-12T16:58:35.642Z,19.90
2019-03-12T17:01:03.777Z,19.90
2019-03-12T17:03:32.008Z,20.10
2019-03-12T17:06:00.009Z,20.30
2019-03-12T17:08:28.131Z,20.40
2019-03-12T17:11:02.452Z,20.30
2019-03-12T17:13:26.151Z,20.50
2019-03-12T17:15:55.168Z,20.70
2019-03-12T17:18:23.322Z,20.70
2019-03-12T17:20:51.389Z,20.90
2019-03-12T17:23:19.468Z,21.00
2019-03-12T17:25:47.520Z,21.10
2019-03-12T17:28:16.645Z,21.10
2019-03-12T17:30:45.194Z,20.60
2019-03-12T17:33:13.520Z,20.60
2019-03-12T17:35:41.867Z,20.70
2019-03-12T17:38:11.478Z,20.50
2019-03-12T17:40:39.506Z,20.70
2019-03-12T17:43:08.990Z,20.50
2019-03-12T17:45:37.263Z,20.50
2019-03-12T17:48:05.440Z,20.30
2019-03-12T17:50:33.828Z,20.50
2019-03-12T17:53:02.207Z,20.30
2019-03-12T17:55:31.203Z,20.80
2019-03-12T17:57:59.517Z,20.50
2019-03-12T18:00:28.985Z,20.00
2019-03-12T18:02:57.471Z,20.20
2019-03-12T18:05:26.296Z,19.90
2019-03-12T18:07:54.632Z,19.90
2019-03-12T18:10:22.789Z,19.60
2019-03-12T18:12:51.084Z,19.30
2019-03-12T18:15:20.230Z,19.70
2019-03-12T18:17:49.628Z,19.80
2019-03-12T18:20:18.092Z,19.30
2019-03-12T18:22:46.573Z,19.30
2019-03-12T18:25:24.419Z,19.10
2019-03-12T18:27:54.815Z,19.00
2019-03-12T18:30:23.326Z,18.90
2019-03-12T18:32:51.654Z,18.80
2019-03-12T18:35:20.261Z,18.40
2019-03-12T18:37:49.384Z,18.00
2019-03-12T18:40:18.273Z,18.00
2019-03-12T18:42:49.779Z,17.70
2019-03-12T18:45:19.954Z,17.50
2019-03-12T18:47:51.316Z,17.70
2019-03-12T18:50:21.572Z,18.20
2019-03-12T18:52:49.701Z,17.00
2019-03-12T18:55:55.149Z,17.20
2019-03-12T18:58:23.735Z,16.30
2019-03-12T19:00:54.514Z,15.90
2019-03-12T19:03:23.888Z,16.10
2019-03-12T19:05:53.011Z,16.10
2019-03-12T19:08:22.172Z,15.90
2019-03-12T19:10:50.243Z,15.70
2019-03-12T19:13:18.731Z,15.70
2019-03-12T19:15:46.958Z,16.00
2019-03-12T19:18:15.248Z,15.60
2019-03-12T19:20:43.396Z,15.90
2019-03-12T19:23:11.638Z,16.00
2019-03-12T19:25:40.431Z,16.00
2019-03-12T19:28:08.548Z,16.00
2019-03-12T19:30:36.743Z,16.20
2019-03-12T19:33:15.295Z,16.30
2019-03-12T19:35:43.579Z,16.80
2019-03-12T19:38:11.860Z,17.00
2019-03-12T19:40:40.228Z,17.10
2019-03-12T19:43:09.460Z,17.20
2019-03-12T19:45:37.711Z,17.20
2019-03-12T19:48:07.003Z,17.30
2019-03-12T19:50:35.821Z,17.40
2019-03-12T19:53:04.433Z,17.60
2019-03-12T19:55:40.063Z,17.70
2019-03-12T19:58:09.412Z,17.80
2019-03-12T20:00:38.610Z,17.90
2019-03-12T20:03:13.312Z,18.00
2019-03-12T20:05:38.814Z,18.20
2019-03-12T20:08:07.635Z,18.40
2019-03-12T20:11:33.793Z,18.60
2019-03-12T20:15:05.159Z,18.50
2019-03-12T20:18:33.187Z,18.80
2019-03-12T20:22:00.736Z,19.00
2019-03-12T20:25:36.634Z,19.10
2019-03-12T20:29:06.335Z,19.00
2019-03-12T20:32:38.850Z,19.10
2019-03-12T20:36:03.536Z,18.90
2019-03-12T20:39:34.817Z,19.10
2019-03-12T20:43:24.976Z,19.30
2019-03-12T20:46:56.801Z,19.50
2019-03-12T20:50:14.576Z,19.40
2019-03-12T20:54:01.230Z,19.40
2019-03-12T20:57:24.028Z,19.60
2019-03-12T21:00:40.727Z,19.70
2019-03-12T21:04:08.281Z,19.60
2019-03-12T21:07:27.006Z,19.60
2019-03-12T21:11:07.081Z,19.70
2019-03-12T21:14:35.885Z,19.70
2019-03-12T21:18:16.177Z,19.90
2019-03-12T21:22:09.527Z,20.00
2019-03-12T21:25:19.127Z,20.30
2019-03-12T21:28:50.337Z,20.40
2019-03-12T21:31:18.764Z,20.60
2019-03-12T21:33:47.037Z,20.80
2019-03-12T21:36:15.597Z,20.70
2019-03-12T21:38:43.992Z,21.10
2019-03-12T21:41:12.418Z,21.30
2019-03-12T21:43:40.643Z,21.50
2019-03-12T21:46:08.961Z,21.70
2019-03-12T21:48:38.810Z,22.00
2019-03-12T21:51:07.422Z,22.30
2019-03-12T21:53:35.555Z,22.90
2019-03-12T21:56:04.242Z,23.40
2019-03-12T21:58:33.535Z,23.50
2019-03-12T22:01:01.768Z,24.30
2019-03-12T22:03:30.604Z,25.00
2019-03-12T22:05:59.044Z,25.20
2019-03-12T22:08:27.206Z,26.00
2019-03-12T22:10:55.867Z,26.50
2019-03-12T22:13:24.208Z,26.90
2019-03-12T22:15:52.503Z,27.20
2019-03-12T22:18:20.764Z,27.10
2019-03-12T22:20:51.298Z,27.10
2019-03-12T22:23:23.060Z,27.20
2019-03-12T22:25:51.859Z,27.40
2019-03-12T22:28:20.149Z,27.90
2019-03-12T22:30:48.323Z,27.70
2019-03-12T22:33:16.477Z,27.70
2019-03-12T22:35:44.737Z,27.70
2019-03-12T22:38:13.057Z,27.90
2019-03-12T22:40:41.200Z,28.10
2019-03-12T22:43:09.339Z,28.30
2019-03-12T22:45:37.382Z,28.50
2019-03-12T22:48:05.660Z,28.70
2019-03-12T22:50:33.668Z,28.90
2019-03-12T22:53:01.712Z,29.20
2019-03-12T22:55:30.861Z,29.80
2019-03-12T22:57:59.231Z,29.50
2019-03-12T23:00:46.417Z,29.90
2019-03-12T23:03:32.761Z,30.00
2019-03-12T23:06:19.039Z,30.30
2019-03-12T23:09:05.731Z,31.00
2019-03-12T23:11:35.750Z,31.10
2019-03-12T23:14:04.509Z,31.60
2019-03-12T23:16:32.970Z,31.90
2019-03-12T23:19:01.107Z,32.50
2019-03-12T23:21:29.344Z,33.50
2019-03-12T23:23:57.402Z,33.50
2019-03-12T23:26:25.523Z,33.70
2019-03-12T23:28:53.868Z,34.70
2019-03-12T23:31:21.805Z,35.60
2019-03-12T23:33:50.226Z,36.10
2019-03-12T23:36:18.476Z,36.80
2019-03-12T23:38:46.487Z,38.10
2019-03-12T23:41:14.476Z,39.40
2019-03-12T23:43:42.448Z,41.30
2019-03-12T23:46:11.233Z,44.00
2019-03-12T23:48:39.220Z,45.50
2019-03-12T23:51:07.409Z,46.80
2019-03-12T23:53:35.920Z,49.20
2019-03-12T23:56:03.948Z,51.50
2019-03-12T23:58:32.415Z,54.70
